createdAt,value
2023-05-20T00:00:50.218Z,90800.81
2023-05-20T00:03:18.164Z,90804.03
2023-05-20T00:05:45.289Z,90810.63
2023-05-20T00:08:12.525Z,90801.66
2023-05-20T00:10:40.021Z,90797.41
2023-05-20T00:13:07.524Z,90793.13
2023-05-20T00:15:35.044Z,90801.75
2023-05-20T00:18:04.266Z,90794.09
2023-05-20T00:20:31.531Z,90789.13
2023-05-20T00:22:58.634Z,90785.59
2023-05-20T00:25:25.787Z,90792.16
2023-05-20T00:27:52.684Z,90792.66
2023-05-20T00:30:19.655Z,90791.09
2023-05-20T00:32:46.817Z,90789.56
2023-05-20T00:35:14.269Z,90784.63
2023-05-20T00:37:41.216Z,90791.19
2023-05-20T00:40:08.659Z,90784.84
2023-05-20T00:42:35.549Z,90784.69
2023-05-20T00:45:02.538Z,90787.88
2023-05-20T00:47:33.169Z,90782.22
2023-05-20T00:50:00.752Z,90782.09
2023-05-20T00:52:31.440Z,90784.56
2023-05-20T00:54:59.555Z,90774.88
2023-05-20T00:57:26.792Z,90775.38
2023-05-20T00:59:54.068Z,90767.09
2023-05-20T01:02:21.905Z,90765.41
2023-05-20T01:04:49.283Z,90772.69
2023-05-20T01:07:18.173Z,90771.16
2023-05-20T01:09:45.862Z,90772.91
2023-05-20T01:12:17.798Z,90774.09
2023-05-20T01:14:50.895Z,90763.72
2023-05-20T01:17:21.354Z,90758.03
2023-05-20T01:19:49.273Z,90758.53
2023-05-20T01:22:16.447Z,90753.66
2023-05-20T01:24:53.620Z,90759.56
2023-05-20T01:27:26.126Z,90757.28
2023-05-20T01:29:53.610Z,90760.47
2023-05-20T01:32:27.930Z,90765.06
2023-05-20T01:34:56.593Z,90762.78
2023-05-20T01:37:25.614Z,90760.66
2023-05-20T01:39:54.513Z,90755.84
2023-05-20T01:42:22.685Z,90748.41
2023-05-20T01:44:49.834Z,90747.13
2023-05-20T01:47:16.850Z,90750.53
2023-05-20T01:49:46.252Z,90751.25
2023-05-20T01:52:13.405Z,90744.53
2023-05-20T01:54:40.386Z,90737.72
2023-05-20T01:57:07.334Z,90739.13
2023-05-20T01:59:34.344Z,90733.00
2023-05-20T02:02:01.349Z,90730.88
2023-05-20T02:04:28.435Z,90725.19
2023-05-20T02:06:55.968Z,90721.06
2023-05-20T02:09:22.934Z,90725.06
2023-05-20T02:11:49.860Z,90720.97
2023-05-20T02:14:16.798Z,90714.13
2023-05-20T02:16:43.943Z,90717.44
2023-05-20T02:19:13.123Z,90711.31
2023-05-20T02:21:41.784Z,90716.00
2023-05-20T02:24:08.841Z,90716.56
2023-05-20T02:26:35.907Z,90718.56
2023-05-20T02:29:02.761Z,90722.56
2023-05-20T02:31:29.717Z,90724.56
2023-05-20T02:33:56.890Z,90724.34
2023-05-20T02:36:23.878Z,90720.78
2023-05-20T02:38:51.297Z,90720.66
2023-05-20T02:41:18.215Z,90721.25
2023-05-20T02:43:45.572Z,90723.25
2023-05-20T02:46:12.594Z,90721.09
2023-05-20T02:48:39.754Z,90718.94
2023-05-20T02:51:06.749Z,90710.13
2023-05-20T02:53:33.734Z,90714.72
2023-05-20T02:56:01.692Z,90718.72
2023-05-20T02:58:29.561Z,90714.59
2023-05-20T03:00:57.980Z,90717.75
2023-05-20T03:03:27.400Z,90716.91
2023-05-20T03:05:54.692Z,90705.25
2023-05-20T03:08:23.199Z,90707.09
2023-05-20T03:10:53.219Z,90707.69
2023-05-20T03:13:20.110Z,90707.56
2023-05-20T03:15:47.154Z,90704.88
2023-05-20T03:18:14.199Z,90713.56
2023-05-20T03:20:41.954Z,90717.53
2023-05-20T03:23:09.268Z,90713.44
2023-05-20T03:25:37.139Z,90717.41
2023-05-20T03:28:04.172Z,90720.72
2023-05-20T03:30:31.644Z,90719.88
2023-05-20T03:32:59.571Z,90718.31
2023-05-20T03:35:26.857Z,90705.38
2023-05-20T03:37:54.016Z,90705.25
2023-05-20T03:40:21.436Z,90707.25
2023-05-20T03:42:48.371Z,90708.53
2023-05-20T03:45:15.593Z,90708.41
2023-05-20T03:47:42.582Z,90706.16
2023-05-20T03:50:10.184Z,90702.59
2023-05-20T03:52:37.267Z,90705.75
2023-05-20T03:55:04.515Z,90701.53
2023-05-20T03:57:32.455Z,90709.47
2023-05-20T03:59:59.418Z,90713.47
2023-05-20T04:02:26.433Z,90712.91
2023-05-20T04:04:53.439Z,90714.88
2023-05-20T04:07:20.327Z,90709.47
2023-05-20T04:09:47.432Z,90708.78
2023-05-20T04:12:14.410Z,90708.78
2023-05-20T04:14:42.439Z,90710.78
2023-05-20T04:17:09.747Z,90713.47
2023-05-20T04:19:38.347Z,90715.47
2023-05-20T04:22:05.578Z,90716.75
2023-05-20T04:24:32.534Z,90716.63
2023-05-20T04:26:59.504Z,90726.75
2023-05-20T04:29:26.841Z,90725.78
2023-05-20T04:31:53.879Z,90721.53
2023-05-20T04:34:27.028Z,90725.91
2023-05-20T04:36:54.210Z,90716.97
2023-05-20T04:39:21.241Z,90720.13
2023-05-20T04:41:49.402Z,90718.56
2023-05-20T04:44:16.411Z,90723.84
2023-05-20T04:46:44.797Z,90717.59
2023-05-20T04:49:12.053Z,90725.44
2023-05-20T04:51:39.077Z,90723.16
2023-05-20T04:54:06.394Z,90720.91
2023-05-20T04:56:33.801Z,90711.13
2023-05-20T04:59:00.760Z,90720.38
2023-05-20T05:01:27.792Z,90722.22
2023-05-20T05:03:54.713Z,90713.28
2023-05-20T05:06:21.742Z,90710.44
2023-05-20T05:08:48.625Z,90710.31
2023-05-20T05:11:15.711Z,90712.88
2023-05-20T05:13:42.648Z,90714.88
2023-05-20T05:16:09.706Z,90714.16
2023-05-20T05:18:36.835Z,90717.56
2023-05-20T05:21:05.446Z,90708.75
2023-05-20T05:23:33.358Z,90708.03
2023-05-20T05:26:00.350Z,90705.22
2023-05-20T05:28:27.340Z,90703.66
2023-05-20T05:30:56.303Z,90700.81
2023-05-20T05:33:23.417Z,90694.56
2023-05-20T05:35:51.184Z,90697.84
2023-05-20T05:38:18.543Z,90695.00
2023-05-20T05:40:45.723Z,90701.56
2023-05-20T05:43:12.849Z,90691.91
2023-05-20T05:45:39.894Z,90683.66
2023-05-20T05:48:06.961Z,90684.09
2023-05-20T05:50:33.903Z,90684.81
2023-05-20T05:53:01.184Z,90671.31
2023-05-20T05:55:28.210Z,90668.03
2023-05-20T05:57:55.181Z,90664.63
2023-05-20T06:00:22.333Z,90660.63
2023-05-20T06:02:49.589Z,90668.03
2023-05-20T06:05:16.851Z,90671.44
2023-05-20T06:07:43.837Z,90658.50
2023-05-20T06:10:11.170Z,90657.81
2023-05-20T06:12:38.213Z,90659.66
2023-05-20T06:15:05.610Z,90656.97
2023-05-20T06:17:32.561Z,90654.78
2023-05-20T06:20:00.220Z,90653.38
2023-05-20T06:22:27.178Z,90644.44
2023-05-20T06:24:56.869Z,90651.13
2023-05-20T06:27:23.814Z,90647.00
2023-05-20T06:29:50.807Z,90644.16
2023-05-20T06:32:17.861Z,90643.31
2023-05-20T06:34:45.509Z,90643.19
2023-05-20T06:37:12.933Z,90639.06
2023-05-20T06:39:40.062Z,90643.06
2023-05-20T06:42:07.022Z,90633.38
2023-05-20T06:44:33.983Z,90636.66
2023-05-20T06:47:00.912Z,90627.72
2023-05-20T06:49:28.552Z,90625.56
2023-05-20T06:51:55.639Z,90624.16
2023-05-20T06:54:22.620Z,90627.44
2023-05-20T06:56:49.543Z,90631.28
2023-05-20T06:59:16.442Z,90637.25
2023-05-20T07:01:43.501Z,90629.00
2023-05-20T07:04:10.885Z,90626.19
2023-05-20T07:06:37.940Z,90624.06
2023-05-20T07:09:05.633Z,90623.34
2023-05-20T07:11:32.591Z,90621.94
2023-05-20T07:13:59.513Z,90627.88
2023-05-20T07:16:26.465Z,90619.66
2023-05-20T07:18:53.453Z,90618.38
2023-05-20T07:21:20.496Z,90620.25
2023-05-20T07:23:47.396Z,90617.69
2023-05-20T07:26:14.435Z,90623.19
2023-05-20T07:28:41.474Z,90625.47
2023-05-20T07:31:08.444Z,90625.59
2023-05-20T07:33:35.420Z,90623.19
2023-05-20T07:36:02.516Z,90619.78
2023-05-20T07:38:29.395Z,90623.19
2023-05-20T07:40:56.521Z,90613.69
2023-05-20T07:43:23.541Z,90611.69
2023-05-20T07:45:51.016Z,90612.41
2023-05-20T07:48:17.876Z,90613.81
2023-05-20T07:50:45.017Z,90613.94
2023-05-20T07:53:12.211Z,90616.78
2023-05-20T07:55:39.443Z,90610.81
2023-05-20T07:58:06.476Z,90612.22
2023-05-20T08:00:33.571Z,90621.16
2023-05-20T08:03:00.769Z,90615.78
2023-05-20T08:05:27.771Z,90611.78
2023-05-20T08:07:54.693Z,90609.78
2023-05-20T08:10:21.663Z,90612.50
2023-05-20T08:12:48.621Z,90608.50
2023-05-20T08:15:15.578Z,90606.50
2023-05-20T08:17:42.621Z,90615.31
2023-05-20T08:20:10.889Z,90612.63
2023-05-20T08:22:37.961Z,90612.06
2023-05-20T08:25:08.912Z,90613.34
2023-05-20T08:27:37.341Z,90620.88
2023-05-20T08:30:05.460Z,90614.75
2023-05-20T08:32:32.399Z,90614.63
2023-05-20T08:35:01.869Z,90611.78
2023-05-20T08:37:29.544Z,90608.81
2023-05-20T08:39:56.607Z,90605.25
2023-05-20T08:42:24.643Z,90602.44
2023-05-20T08:44:56.681Z,90605.59
2023-05-20T08:47:23.740Z,90601.44
2023-05-20T08:49:50.739Z,90604.00
2023-05-20T08:52:22.502Z,90612.13
2023-05-20T08:54:51.605Z,90609.41
2023-05-20T08:57:20.516Z,90612.81
2023-05-20T08:59:47.574Z,90606.00
2023-05-20T09:02:15.151Z,90605.31
2023-05-20T09:04:42.460Z,90606.59
2023-05-20T09:07:09.597Z,90609.28
2023-05-20T09:09:36.800Z,90613.28
2023-05-20T09:12:04.120Z,90603.75
2023-05-20T09:14:31.893Z,90607.88
2023-05-20T09:17:00.085Z,90605.31
2023-05-20T09:19:27.333Z,90611.53
2023-05-20T09:21:55.453Z,90610.81
2023-05-20T09:24:26.874Z,90617.63
2023-05-20T09:26:54.181Z,90617.63
2023-05-20T09:29:21.985Z,90612.94
2023-05-20T09:31:50.204Z,90610.25
2023-05-20T09:34:17.998Z,90610.25
2023-05-20T09:36:45.452Z,90605.59
2023-05-20T09:39:17.312Z,90599.44
2023-05-20T09:42:03.159Z,90600.19
2023-05-20T09:44:31.743Z,90600.75
2023-05-20T09:46:59.489Z,90604.16
2023-05-20T09:49:28.211Z,90603.44
2023-05-20T09:51:57.278Z,90591.94
2023-05-20T09:54:25.777Z,90587.81
2023-05-20T09:56:53.766Z,90597.34
2023-05-20T09:59:22.353Z,90594.63
2023-05-20T10:01:49.413Z,90598.03
2023-05-20T10:04:18.570Z,90599.31
2023-05-20T10:06:54.584Z,90591.22
2023-05-20T10:09:31.344Z,90595.34
2023-05-20T10:12:11.295Z,90591.94
2023-05-20T10:14:46.256Z,90594.63
2023-05-20T10:17:21.509Z,90590.66
2023-05-20T10:19:50.849Z,90591.34
2023-05-20T10:22:31.758Z,90594.06
2023-05-20T10:25:00.513Z,90589.38
2023-05-20T10:27:27.497Z,90580.56
2023-05-20T10:29:57.619Z,90572.47
2023-05-20T10:32:33.430Z,90578.59
2023-05-20T10:35:10.273Z,90574.44
2023-05-20T10:37:45.169Z,90579.13
2023-05-20T10:40:14.716Z,90575.03
2023-05-20T10:42:42.824Z,90578.44
2023-05-20T10:45:10.760Z,90574.31
2023-05-20T10:47:53.832Z,90569.63
2023-05-20T10:50:38.885Z,90567.63
2023-05-20T10:53:13.032Z,90576.44
2023-05-20T10:55:52.163Z,90574.44
2023-05-20T10:58:19.911Z,90573.75
2023-05-20T11:00:50.724Z,90571.03
2023-05-20T11:03:18.898Z,90578.59
2023-05-20T11:05:47.610Z,90570.50
2023-05-20T11:08:27.800Z,90586.13
2023-05-20T11:10:57.855Z,90580.00
2023-05-20T11:13:25.884Z,90570.63
2023-05-20T11:15:53.340Z,90573.31
2023-05-20T11:18:20.459Z,90572.63
2023-05-20T11:20:47.923Z,90575.31
2023-05-20T11:23:16.011Z,90572.03
2023-05-20T11:25:43.309Z,90567.91
2023-05-20T11:28:14.121Z,90570.63
2023-05-20T11:30:43.162Z,90569.34
2023-05-20T11:33:12.850Z,90562.53
2023-05-20T11:35:48.923Z,90563.94
2023-05-20T11:38:16.693Z,90555.72
2023-05-20T11:40:55.314Z,90562.53
2023-05-20T11:43:24.059Z,90567.91
2023-05-20T11:45:56.086Z,90567.91
2023-05-20T11:48:24.135Z,90574.03
2023-05-20T11:50:53.303Z,90566.63
2023-05-20T11:53:21.860Z,90567.34
2023-05-20T11:55:59.861Z,90572.03
2023-05-20T11:58:29.940Z,90570.63
2023-05-20T12:01:05.734Z,90571.31
2023-05-20T12:03:44.206Z,90567.34
2023-05-20T12:06:13.666Z,90572.03
2023-05-20T12:08:40.691Z,90571.31
2023-05-20T12:11:07.688Z,90571.31
2023-05-20T12:13:35.582Z,90582.13
2023-05-20T12:16:02.944Z,90571.31
2023-05-20T12:18:29.874Z,90579.44
2023-05-20T12:20:56.855Z,90580.72
2023-05-20T12:23:23.894Z,90570.63
2023-05-20T12:25:50.986Z,90565.22
2023-05-20T12:28:17.972Z,90559.81
2023-05-20T12:30:44.902Z,90559.13
2023-05-20T12:33:11.888Z,90563.81
2023-05-20T12:35:42.285Z,90563.81
2023-05-20T12:38:10.301Z,90559.13
2023-05-20T12:40:37.824Z,90557.13
2023-05-20T12:43:05.812Z,90553.72
2023-05-20T12:45:33.109Z,90559.81
2023-05-20T12:48:00.544Z,90566.63
2023-05-20T12:50:28.197Z,90569.34
2023-05-20T12:52:55.550Z,90568.75
2023-05-20T12:55:22.815Z,90564.66
2023-05-20T12:57:50.241Z,90569.47
2023-05-20T13:00:17.599Z,90569.34
2023-05-20T13:02:44.627Z,90573.44
2023-05-20T13:05:12.424Z,90568.75
2023-05-20T13:07:40.311Z,90565.34
2023-05-20T13:10:08.289Z,90561.94
2023-05-20T13:12:35.880Z,90563.94
2023-05-20T13:15:03.870Z,90561.94
2023-05-20T13:17:31.109Z,90565.94
2023-05-20T13:19:58.511Z,90561.94
2023-05-20T13:22:25.424Z,90572.03
2023-05-20T13:24:52.395Z,90570.75
2023-05-20T13:27:19.274Z,90567.34
2023-05-20T13:29:46.295Z,90563.34
2023-05-20T13:32:13.181Z,90576.84
2023-05-20T13:34:40.130Z,90583.66
2023-05-20T13:37:07.150Z,90580.97
2023-05-20T13:39:34.433Z,90576.97
2023-05-20T13:42:01.372Z,90583.09
2023-05-20T13:44:29.056Z,90584.66
2023-05-20T13:46:57.188Z,90590.06
2023-05-20T13:49:25.655Z,90588.78
2023-05-20T13:51:52.569Z,90578.69
2023-05-20T13:54:21.629Z,90574.56
2023-05-20T13:56:48.837Z,90573.84
2023-05-20T13:59:15.888Z,90582.53
2023-05-20T14:01:45.400Z,90587.34
2023-05-20T14:04:13.061Z,90589.94
2023-05-20T14:06:40.671Z,90587.22
2023-05-20T14:09:09.403Z,90575.00
2023-05-20T14:11:37.565Z,90580.53
2023-05-20T14:14:04.792Z,90578.81
2023-05-20T14:16:32.872Z,90580.38
2023-05-20T14:19:00.208Z,90584.03
2023-05-20T14:21:27.458Z,90582.91
2023-05-20T14:23:54.371Z,90581.03
2023-05-20T14:26:21.885Z,90573.75
2023-05-20T14:28:49.212Z,90574.66
2023-05-20T14:31:16.395Z,90570.78
2023-05-20T14:33:43.337Z,90579.59
2023-05-20T14:36:11.340Z,90570.22
2023-05-20T14:38:38.388Z,90571.63
2023-05-20T14:41:05.351Z,90575.19
2023-05-20T14:43:32.360Z,90587.53
2023-05-20T14:45:59.291Z,90584.38
2023-05-20T14:48:26.734Z,90585.09
2023-05-20T14:50:53.615Z,90585.22
2023-05-20T14:53:20.883Z,90585.22
2023-05-20T14:55:47.727Z,90581.81
2023-05-20T14:58:14.711Z,90583.09
2023-05-20T15:00:41.997Z,90584.50
2023-05-20T15:03:09.141Z,90586.63
2023-05-20T15:05:36.289Z,90592.75
2023-05-20T15:08:03.994Z,90586.75
2023-05-20T15:10:31.018Z,90590.91
2023-05-20T15:12:57.940Z,90601.13
2023-05-20T15:15:24.925Z,90592.31
2023-05-20T15:17:51.975Z,90597.00
2023-05-20T15:20:18.937Z,90592.88
2023-05-20T15:22:47.957Z,90592.88
2023-05-20T15:25:15.462Z,90585.50
2023-05-20T15:27:42.412Z,90591.03
2023-05-20T15:30:10.574Z,90588.91
2023-05-20T15:32:37.849Z,90591.72
2023-05-20T15:35:05.458Z,90587.75
2023-05-20T15:37:32.401Z,90595.13
2023-05-20T15:39:59.328Z,90598.56
2023-05-20T15:42:26.986Z,90602.66
2023-05-20T15:44:53.889Z,90602.09
2023-05-20T15:47:21.501Z,90599.97
2023-05-20T15:49:48.632Z,90593.28
2023-05-20T15:52:15.984Z,90593.97
2023-05-20T15:54:42.906Z,90597.38
2023-05-20T15:57:10.294Z,90601.53
2023-05-20T15:59:37.272Z,90600.09
2023-05-20T16:02:04.345Z,90607.38
2023-05-20T16:04:32.542Z,90599.13
2023-05-20T16:07:00.064Z,90605.81
2023-05-20T16:09:26.962Z,90605.81
2023-05-20T16:11:53.976Z,90607.25
2023-05-20T16:14:20.843Z,90606.53
2023-05-20T16:16:47.840Z,90611.94
2023-05-20T16:19:15.160Z,90612.75
2023-05-20T16:21:42.149Z,90620.16
2023-05-20T16:24:09.131Z,90622.16
2023-05-20T16:26:36.054Z,90628.00
2023-05-20T16:29:03.099Z,90622.47
2023-05-20T16:31:30.041Z,90619.63
2023-05-20T16:33:57.695Z,90618.94
2023-05-20T16:36:24.821Z,90618.94
2023-05-20T16:38:51.752Z,90617.94
2023-05-20T16:41:18.784Z,90617.69
2023-05-20T16:43:45.804Z,90612.00
2023-05-20T16:46:14.640Z,90613.88
2023-05-20T16:48:42.792Z,90616.97
2023-05-20T16:51:09.722Z,90609.44
2023-05-20T16:53:36.983Z,90608.63
2023-05-20T16:56:06.729Z,90612.59
2023-05-20T16:58:33.572Z,90613.03
2023-05-20T17:01:02.054Z,90608.22
2023-05-20T17:03:29.049Z,90608.09
2023-05-20T17:05:55.988Z,90601.81
2023-05-20T17:08:23.084Z,90610.50
2023-05-20T17:10:51.880Z,90606.38
2023-05-20T17:13:20.875Z,90604.84
2023-05-20T17:15:47.871Z,90608.66
2023-05-20T17:18:15.049Z,90603.28
2023-05-20T17:20:42.083Z,90603.72
2023-05-20T17:23:09.135Z,90605.72
2023-05-20T17:25:36.672Z,90597.63
2023-05-20T17:28:03.734Z,90594.06
2023-05-20T17:30:30.646Z,90594.63
2023-05-20T17:32:58.218Z,90597.19
2023-05-20T17:35:28.301Z,90601.31
2023-05-20T17:37:55.381Z,90602.03
2023-05-20T17:40:22.499Z,90603.44
2023-05-20T17:42:49.475Z,90602.88
2023-05-20T17:45:16.560Z,90599.59
2023-05-20T17:47:43.681Z,90605.84
2023-05-20T17:50:11.184Z,90601.84
2023-05-20T17:52:38.155Z,90610.09
2023-05-20T17:55:06.771Z,90607.53
2023-05-20T17:57:34.174Z,90611.22
2023-05-20T18:00:02.371Z,90608.78
2023-05-20T18:02:29.453Z,90613.75
2023-05-20T18:04:56.408Z,90609.91
2023-05-20T18:07:23.485Z,90608.03
2023-05-20T18:09:50.629Z,90606.16
2023-05-20T18:12:17.860Z,90612.47
2023-05-20T18:14:44.910Z,90605.19
2023-05-20T18:17:11.979Z,90624.22
2023-05-20T18:19:38.971Z,90626.38
2023-05-20T18:22:07.405Z,90621.69
2023-05-20T18:24:34.624Z,90616.28
2023-05-20T18:27:01.764Z,90621.69
2023-05-20T18:29:28.832Z,90622.81
2023-05-20T18:31:56.090Z,90619.41
2023-05-20T18:34:23.240Z,90616.00
2023-05-20T18:36:50.706Z,90618.00
2023-05-20T18:39:21.087Z,90613.88
2023-05-20T18:41:48.805Z,90607.78
2023-05-20T18:44:17.255Z,90618.44
2023-05-20T18:46:45.206Z,90608.16
2023-05-20T18:49:12.552Z,90606.03
2023-05-20T18:51:40.537Z,90616.13
2023-05-20T18:54:08.175Z,90612.03
2023-05-20T18:56:35.931Z,90615.31
2023-05-20T18:59:03.138Z,90620.00
2023-05-20T19:01:30.406Z,90621.84
2023-05-20T19:03:57.524Z,90608.34
2023-05-20T19:06:24.660Z,90607.50
2023-05-20T19:08:51.901Z,90609.50
2023-05-20T19:11:19.208Z,90615.47
2023-05-20T19:13:46.526Z,90620.16
2023-05-20T19:16:13.790Z,90617.47
2023-05-20T19:18:41.071Z,90620.00
2023-05-20T19:21:08.177Z,90618.59
2023-05-20T19:23:35.309Z,90628.69
2023-05-20T19:26:02.561Z,90623.88
2023-05-20T19:28:29.683Z,90631.84
2023-05-20T19:30:57.299Z,90623.75
2023-05-20T19:33:25.709Z,90627.72
2023-05-20T19:35:52.850Z,90625.56
2023-05-20T19:38:39.126Z,90627.44
2023-05-20T19:41:06.275Z,90631.56
2023-05-20T19:43:33.360Z,90634.25
2023-05-20T19:46:00.639Z,90630.28
2023-05-20T19:48:27.681Z,90631.13
2023-05-20T19:50:54.838Z,90625.88
2023-05-20T19:53:21.832Z,90622.31
2023-05-20T19:55:48.842Z,90623.03
2023-05-20T19:58:16.193Z,90627.72
2023-05-20T20:00:43.401Z,90630.97
2023-05-20T20:03:12.254Z,90634.25
2023-05-20T20:05:39.469Z,90635.53
2023-05-20T20:08:17.210Z,90631.44
2023-05-20T20:10:44.374Z,90630.00
2023-05-20T20:13:11.390Z,90637.41
2023-05-20T20:15:38.697Z,90635.28
2023-05-20T20:18:06.281Z,90642.66
2023-05-20T20:20:40.130Z,90639.25
2023-05-20T20:23:08.235Z,90635.81
2023-05-20T20:25:39.294Z,90626.91
2023-05-20T20:28:07.803Z,90633.00
2023-05-20T20:30:36.392Z,90630.88
2023-05-20T20:33:06.723Z,90632.16
2023-05-20T20:35:39.647Z,90629.47
2023-05-20T20:38:09.008Z,90628.06
2023-05-20T20:40:42.010Z,90625.91
2023-05-20T20:43:11.218Z,90630.47
2023-05-20T20:45:38.414Z,90623.78
2023-05-20T20:48:08.175Z,90628.47
2023-05-20T20:50:36.717Z,90634.44
2023-05-20T20:53:03.890Z,90631.03
2023-05-20T20:55:31.749Z,90635.03
2023-05-20T20:58:03.054Z,90626.06
2023-05-20T21:00:34.131Z,90619.94
2023-05-20T21:03:01.499Z,90619.81
2023-05-20T21:05:31.515Z,90619.13
2023-05-20T21:07:59.728Z,90611.59
2023-05-20T21:10:30.079Z,90609.47
2023-05-20T21:13:15.330Z,90604.63
2023-05-20T21:15:43.189Z,90607.31
2023-05-20T21:18:11.389Z,90601.78
2023-05-20T21:20:38.583Z,90593.56
2023-05-20T21:23:05.714Z,90584.78
2023-05-20T21:25:36.832Z,90584.78
2023-05-20T21:28:04.395Z,90590.75
2023-05-20T21:30:31.537Z,90579.25
2023-05-20T21:33:02.035Z,90573.69
2023-05-20T21:35:29.325Z,90578.97
2023-05-20T21:37:59.678Z,90572.84
2023-05-20T21:40:27.019Z,90578.13
2023-05-20T21:42:54.129Z,90578.13
2023-05-20T21:45:21.266Z,90580.81
2023-05-20T21:47:48.504Z,90570.59
2023-05-20T21:50:16.041Z,90583.34
2023-05-20T21:52:43.533Z,90570.44
2023-05-20T21:55:10.947Z,90571.72
2023-05-20T21:57:39.258Z,90575.72
2023-05-20T22:00:15.173Z,90571.00
2023-05-20T22:02:42.373Z,90570.19
2023-05-20T22:05:15.895Z,90566.19
2023-05-20T22:07:47.129Z,90575.56
2023-05-20T22:10:17.788Z,90580.25
2023-05-20T22:12:45.190Z,90571.47
2023-05-20T22:15:12.320Z,90570.56
2023-05-20T22:17:58.854Z,90573.25
2023-05-20T22:20:25.990Z,90568.56
2023-05-20T22:22:53.137Z,90573.97
2023-05-20T22:25:20.375Z,90573.97
2023-05-20T22:27:48.571Z,90565.88
2023-05-20T22:30:15.731Z,90564.63
2023-05-20T22:32:43.526Z,90565.88
2023-05-20T22:35:13.389Z,90563.19
2023-05-20T22:37:40.767Z,90562.47
2023-05-20T22:40:08.412Z,90564.47
2023-05-20T22:42:35.722Z,90566.47
2023-05-20T22:45:02.805Z,90563.06
2023-05-20T22:47:29.945Z,90556.25
2023-05-20T22:49:57.869Z,90550.84
2023-05-20T22:52:25.753Z,90552.84
2023-05-20T22:54:52.831Z,90547.31
2023-05-20T22:57:20.494Z,90552.13
2023-05-20T22:59:47.868Z,90543.91
2023-05-20T23:02:15.182Z,90550.56
2023-05-20T23:04:43.583Z,90547.88
2023-05-20T23:07:15.107Z,90540.34
2023-05-20T23:09:42.218Z,90534.97
2023-05-20T23:12:09.444Z,90536.94
2023-05-20T23:14:36.481Z,90532.25
2023-05-20T23:17:03.708Z,90535.53
2023-05-20T23:19:30.935Z,90528.72
2023-05-20T23:21:58.051Z,90523.19
2023-05-20T23:24:25.173Z,90528.59
2023-05-20T23:26:54.280Z,90526.44
2023-05-20T23:29:22.425Z,90533.81
2023-05-20T23:31:50.982Z,90527.03
2023-05-20T23:34:18.390Z,90530.44
2023-05-20T23:36:46.115Z,90527.72
2023-05-20T23:39:14.422Z,90530.28
2023-05-20T23:41:43.009Z,90535.69
2023-05-20T23:44:10.156Z,90531.56
2023-05-20T23:46:38.210Z,90528.16
2023-05-20T23:49:05.974Z,90533.56
2023-05-20T23:51:32.997Z,90530.88
2023-05-20T23:54:00.170Z,90534.84
2023-05-20T23:56:27.235Z,90532.84
2023-05-20T23:58:54.338Z,90526.59
